sensor_id;sensor_type;location;lat;lon;timestamp;pressure;altitude;pressure_sealevel;temperature;humidity
52923;BME280;38796;42.702;23.306;2022-07-09T00:01:45;95175.13;;;16.71;100.00
52923;BME280;38796;42.702;23.306;2022-07-09T00:03:43;95175.25;;;16.47;100.00
52923;BME280;38796;42.702;23.306;2022-07-09T00:05:42;95174.47;;;16.38;100.00
52923;BME280;38796;42.702;23.306;2022-07-09T00:07:40;95177.94;;;16.39;100.00
52923;BME280;38796;42.702;23.306;2022-07-09T00:09:38;95180.00;;;16.20;100.00
52923;BME280;38796;42.702;23.306;2022-07-09T00:11:37;95176.41;;;16.05;100.00
52923;BME280;38796;42.702;23.306;2022-07-09T00:13:35;95174.72;;;16.12;100.00
52923;BME280;38796;42.702;23.306;2022-07-09T00:15:35;95173.59;;;15.98;100.00
52923;BME280;38796;42.702;23.306;2022-07-09T00:17:33;95176.06;;;16.00;100.00
52923;BME280;38796;42.702;23.306;2022-07-09T00:19:31;95172.41;;;16.01;100.00
52923;BME280;38796;42.702;23.306;2022-07-09T00:21:30;95158.13;;;16.10;100.00
52923;BME280;38796;42.702;23.306;2022-07-09T00:23:28;95162.63;;;16.09;100.00
52923;BME280;38796;42.702;23.306;2022-07-09T00:25:26;95162.44;;;16.11;100.00
52923;BME280;38796;42.702;23.306;2022-07-09T00:27:25;95158.91;;;16.19;100.00
52923;BME280;38796;42.702;23.306;2022-07-09T00:29:23;95147.31;;;16.20;100.00
52923;BME280;38796;42.702;23.306;2022-07-09T00:31:23;95144.13;;;16.24;100.00
52923;BME280;38796;42.702;23.306;2022-07-09T00:33:21;95143.13;;;16.25;100.00
52923;BME280;38796;42.702;23.306;2022-07-09T00:35:20;95139.81;;;16.23;100.00
52923;BME280;38796;42.702;23.306;2022-07-09T00:37:18;95146.59;;;16.26;100.00
52923;BME280;38796;42.702;23.306;2022-07-09T00:39:16;95146.41;;;16.36;100.00
52923;BME280;38796;42.702;23.306;2022-07-09T00:41:14;95150.72;;;16.37;100.00
52923;BME280;38796;42.702;23.306;2022-07-09T00:43:17;95145.88;;;16.40;100.00
52923;BME280;38796;42.702;23.306;2022-07-09T00:45:15;95143.09;;;16.33;100.00
52923;BME280;38796;42.702;23.306;2022-07-09T00:47:15;95144.28;;;16.31;100.00
52923;BME280;38796;42.702;23.306;2022-07-09T00:49:14;95151.50;;;16.06;100.00
52923;BME280;38796;42.702;23.306;2022-07-09T00:51:12;95139.56;;;15.94;100.00
52923;BME280;38796;42.702;23.306;2022-07-09T00:53:13;95139.84;;;16.15;100.00
52923;BME280;38796;42.702;23.306;2022-07-09T00:55:13;95136.69;;;16.20;100.00
52923;BME280;38796;42.702;23.306;2022-07-09T00:57:12;95130.03;;;16.24;100.00
52923;BME280;38796;42.702;23.306;2022-07-09T00:59:11;95131.19;;;16.21;100.00
52923;BME280;38796;42.702;23.306;2022-07-09T01:01:11;95122.97;;;16.39;100.00
52923;BME280;38796;42.702;23.306;2022-07-09T01:03:11;95119.16;;;16.42;100.00
52923;BME280;38796;42.702;23.306;2022-07-09T01:05:10;95121.81;;;16.42;100.00
52923;BME280;38796;42.702;23.306;2022-07-09T01:07:08;95132.13;;;16.37;100.00
52923;BME280;38796;42.702;23.306;2022-07-09T01:09:06;95119.34;;;16.32;100.00
52923;BME280;38796;42.702;23.306;2022-07-09T01:11:05;95120.66;;;16.36;100.00
52923;BME280;38796;42.702;23.306;2022-07-09T01:13:04;95125.44;;;16.41;100.00
52923;BME280;38796;42.702;23.306;2022-07-09T01:15:04;95126.13;;;16.43;100.00
52923;BME280;38796;42.702;23.306;2022-07-09T01:17:04;95122.44;;;16.44;100.00
52923;BME280;38796;42.702;23.306;2022-07-09T01:19:05;95111.00;;;16.43;100.00
52923;BME280;38796;42.702;23.306;2022-07-09T01:21:06;95113.84;;;16.42;100.00
52923;BME280;38796;42.702;23.306;2022-07-09T01:23:05;95115.66;;;16.41;100.00
52923;BME280;38796;42.702;23.306;2022-07-09T01:25:07;95118.19;;;16.34;100.00
52923;BME280;38796;42.702;23.306;2022-07-09T01:27:06;95115.81;;;16.40;100.00
52923;BME280;38796;42.702;23.306;2022-07-09T01:29:05;95115.22;;;16.29;100.00
52923;BME280;38796;42.702;23.306;2022-07-09T01:31:04;95108.88;;;16.39;100.00
52923;BME280;38796;42.702;23.306;2022-07-09T01:33:02;95112.00;;;16.42;100.00
52923;BME280;38796;42.702;23.306;2022-07-09T01:35:01;95102.38;;;16.41;100.00
52923;BME280;38796;42.702;23.306;2022-07-09T01:37:01;95109.16;;;16.44;100.00
52923;BME280;38796;42.702;23.306;2022-07-09T01:38:59;95105.38;;;16.38;100.00
52923;BME280;38796;42.702;23.306;2022-07-09T01:40:58;95103.38;;;16.40;100.00
52923;BME280;38796;42.702;23.306;2022-07-09T01:42:56;95106.75;;;16.34;100.00
52923;BME280;38796;42.702;23.306;2022-07-09T01:44:54;95104.03;;;16.42;100.00
52923;BME280;38796;42.702;23.306;2022-07-09T01:46:53;95107.22;;;16.38;100.00
52923;BME280;38796;42.702;23.306;2022-07-09T01:48:51;95103.72;;;16.37;100.00
52923;BME280;38796;42.702;23.306;2022-07-09T01:50:49;95101.63;;;16.24;100.00
52923;BME280;38796;42.702;23.306;2022-07-09T01:52:52;95105.25;;;16.31;100.00
52923;BME280;38796;42.702;23.306;2022-07-09T01:54:50;95103.59;;;16.30;100.00
52923;BME280;38796;42.702;23.306;2022-07-09T01:56:48;95107.22;;;16.29;100.00
52923;BME280;38796;42.702;23.306;2022-07-09T01:58:47;95110.25;;;16.26;100.00
52923;BME280;38796;42.702;23.306;2022-07-09T02:00:45;95112.41;;;16.31;100.00
52923;BME280;38796;42.702;23.306;2022-07-09T02:02:43;95105.16;;;16.17;100.00
52923;BME280;38796;42.702;23.306;2022-07-09T02:04:42;95099.31;;;16.21;100.00
52923;BME280;38796;42.702;23.306;2022-07-09T02:06:42;95105.63;;;16.20;100.00
52923;BME280;38796;42.702;23.306;2022-07-09T02:08:42;95106.66;;;16.11;100.00
52923;BME280;38796;42.702;23.306;2022-07-09T02:10:40;95110.81;;;16.14;100.00
52923;BME280;38796;42.702;23.306;2022-07-09T02:12:38;95108.09;;;16.22;100.00
52923;BME280;38796;42.702;23.306;2022-07-09T02:14:37;95115.81;;;16.00;100.00
52923;BME280;38796;42.702;23.306;2022-07-09T02:16:35;95119.94;;;16.19;100.00
52923;BME280;38796;42.702;23.306;2022-07-09T02:18:34;95113.31;;;16.07;100.00
52923;BME280;38796;42.702;23.306;2022-07-09T02:20:33;95125.63;;;16.00;100.00
52923;BME280;38796;42.702;23.306;2022-07-09T02:22:31;95108.00;;;16.07;100.00
52923;BME280;38796;42.702;23.306;2022-07-09T02:24:31;95122.81;;;15.93;100.00
52923;BME280;38796;42.702;23.306;2022-07-09T02:26:29;95117.34;;;15.95;100.00
52923;BME280;38796;42.702;23.306;2022-07-09T02:28:28;95125.69;;;15.83;100.00
52923;BME280;38796;42.702;23.306;2022-07-09T02:30:27;95118.88;;;15.65;100.00
52923;BME280;38796;42.702;23.306;2022-07-09T02:32:25;95122.38;;;15.73;100.00
52923;BME280;38796;42.702;23.306;2022-07-09T02:34:23;95126.03;;;15.80;100.00
52923;BME280;38796;42.702;23.306;2022-07-09T02:36:22;95127.34;;;15.68;100.00
52923;BME280;38796;42.702;23.306;2022-07-09T02:38:20;95133.78;;;15.90;100.00
52923;BME280;38796;42.702;23.306;2022-07-09T02:40:20;95126.66;;;15.91;100.00
52923;BME280;38796;42.702;23.306;2022-07-09T02:42:18;95129.28;;;15.99;100.00
52923;BME280;38796;42.702;23.306;2022-07-09T02:44:17;95132.63;;;15.93;100.00
52923;BME280;38796;42.702;23.306;2022-07-09T02:46:15;95137.41;;;15.97;100.00
52923;BME280;38796;42.702;23.306;2022-07-09T02:48:14;95130.09;;;15.99;100.00
52923;BME280;38796;42.702;23.306;2022-07-09T02:50:12;95126.94;;;16.04;100.00
52923;BME280;38796;42.702;23.306;2022-07-09T02:52:10;95128.25;;;16.08;100.00
52923;BME280;38796;42.702;23.306;2022-07-09T02:54:09;95132.38;;;16.10;100.00
52923;BME280;38796;42.702;23.306;2022-07-09T02:56:08;95127.97;;;15.95;100.00
52923;BME280;38796;42.702;23.306;2022-07-09T02:58:07;95134.41;;;16.00;100.00
52923;BME280;38796;42.702;23.306;2022-07-09T03:00:06;95138.38;;;16.04;100.00
52923;BME280;38796;42.702;23.306;2022-07-09T03:02:05;95142.38;;;16.08;100.00
52923;BME280;38796;42.702;23.306;2022-07-09T03:04:03;95138.91;;;16.00;100.00
52923;BME280;38796;42.702;23.306;2022-07-09T03:06:02;95139.78;;;15.84;100.00
52923;BME280;38796;42.702;23.306;2022-07-09T03:08:01;95144.94;;;15.77;100.00
52923;BME280;38796;42.702;23.306;2022-07-09T03:09:59;95139.09;;;15.82;100.00
52923;BME280;38796;42.702;23.306;2022-07-09T03:11:59;95141.59;;;15.75;100.00
52923;BME280;38796;42.702;23.306;2022-07-09T03:13:57;95140.47;;;15.61;100.00
52923;BME280;38796;42.702;23.306;2022-07-09T03:15:56;95141.28;;;15.78;100.00
52923;BME280;38796;42.702;23.306;2022-07-09T03:17:55;95146.78;;;15.77;100.00
52923;BME280;38796;42.702;23.306;2022-07-09T03:19:53;95152.72;;;15.87;100.00
52923;BME280;38796;42.702;23.306;2022-07-09T03:21:52;95142.44;;;15.84;100.00
52923;BME280;38796;42.702;23.306;2022-07-09T03:23:50;95134.59;;;15.99;100.00
52923;BME280;38796;42.702;23.306;2022-07-09T03:25:48;95141.56;;;16.00;100.00
52923;BME280;38796;42.702;23.306;2022-07-09T03:27:48;95138.38;;;16.13;100.00
52923;BME280;38796;42.702;23.306;2022-07-09T03:29:46;95136.53;;;16.13;100.00
52923;BME280;38796;42.702;23.306;2022-07-09T03:31:44;95136.41;;;16.06;100.00
52923;BME280;38796;42.702;23.306;2022-07-09T03:33:43;95133.22;;;16.11;100.00
52923;BME280;38796;42.702;23.306;2022-07-09T03:35:41;95139.34;;;16.12;100.00
52923;BME280;38796;42.702;23.306;2022-07-09T03:37:40;95139.56;;;16.02;100.00
52923;BME280;38796;42.702;23.306;2022-07-09T03:39:38;95134.91;;;16.04;100.00
52923;BME280;38796;42.702;23.306;2022-07-09T03:41:37;95133.88;;;16.13;100.00
52923;BME280;38796;42.702;23.306;2022-07-09T03:43:36;95141.03;;;16.04;100.00
52923;BME280;38796;42.702;23.306;2022-07-09T03:45:35;95133.69;;;16.15;100.00
52923;BME280;38796;42.702;23.306;2022-07-09T03:47:33;95132.63;;;15.93;100.00
52923;BME280;38796;42.702;23.306;2022-07-09T03:49:32;95135.94;;;15.86;100.00
52923;BME280;38796;42.702;23.306;2022-07-09T03:51:30;95137.22;;;16.07;100.00
52923;BME280;38796;42.702;23.306;2022-07-09T03:53:28;95141.59;;;15.92;100.00
52923;BME280;38796;42.702;23.306;2022-07-09T03:55:27;95147.09;;;15.74;100.00
52923;BME280;38796;42.702;23.306;2022-07-09T03:57:26;95146.03;;;15.99;100.00
52923;BME280;38796;42.702;23.306;2022-07-09T03:59:26;95144.59;;;15.80;100.00
52923;BME280;38796;42.702;23.306;2022-07-09T04:01:24;95142.72;;;15.97;100.00
52923;BME280;38796;42.702;23.306;2022-07-09T04:03:22;95146.00;;;16.07;100.00
52923;BME280;38796;42.702;23.306;2022-07-09T04:05:20;95143.91;;;15.95;100.00
52923;BME280;38796;42.702;23.306;2022-07-09T04:07:19;95147.06;;;15.98;100.00
52923;BME280;38796;42.702;23.306;2022-07-09T04:09:17;95138.88;;;16.08;100.00
52923;BME280;38796;42.702;23.306;2022-07-09T04:11:15;95141.69;;;16.06;100.00
52923;BME280;38796;42.702;23.306;2022-07-09T04:13:14;95148.00;;;16.14;100.00
52923;BME280;38796;42.702;23.306;2022-07-09T04:15:13;95150.59;;;16.22;100.00
52923;BME280;38796;42.702;23.306;2022-07-09T04:17:12;95150.47;;;16.15;100.00
52923;BME280;38796;42.702;23.306;2022-07-09T04:19:10;95147.47;;;16.18;100.00
52923;BME280;38796;42.702;23.306;2022-07-09T04:21:08;95148.09;;;16.28;100.00
52923;BME280;38796;42.702;23.306;2022-07-09T04:23:07;95153.03;;;16.40;100.00
52923;BME280;38796;42.702;23.306;2022-07-09T04:25:06;95155.88;;;16.38;100.00
52923;BME280;38796;42.702;23.306;2022-07-09T04:27:05;95151.56;;;16.29;100.00
52923;BME280;38796;42.702;23.306;2022-07-09T04:29:03;95158.34;;;16.40;100.00
52923;BME280;38796;42.702;23.306;2022-07-09T04:31:03;95160.63;;;16.51;100.00
52923;BME280;38796;42.702;23.306;2022-07-09T04:33:02;95163.03;;;16.29;100.00
52923;BME280;38796;42.702;23.306;2022-07-09T04:35:00;95159.69;;;16.36;100.00
52923;BME280;38796;42.702;23.306;2022-07-09T04:36:59;95158.00;;;16.43;100.00
52923;BME280;38796;42.702;23.306;2022-07-09T04:38:58;95150.41;;;16.31;100.00
52923;BME280;38796;42.702;23.306;2022-07-09T04:40:56;95150.41;;;16.31;100.00
52923;BME280;38796;42.702;23.306;2022-07-09T04:42:54;95149.81;;;16.52;100.00
52923;BME280;38796;42.702;23.306;2022-07-09T04:44:53;95151.91;;;16.65;100.00
52923;BME280;38796;42.702;23.306;2022-07-09T04:46:53;95151.50;;;16.85;100.00
52923;BME280;38796;42.702;23.306;2022-07-09T04:48:51;95149.06;;;16.98;100.00
52923;BME280;38796;42.702;23.306;2022-07-09T04:50:49;95149.19;;;16.81;99.38
52923;BME280;38796;42.702;23.306;2022-07-09T04:52:47;95144.56;;;16.75;99.03
52923;BME280;38796;42.702;23.306;2022-07-09T04:54:47;95147.72;;;16.71;100.00
52923;BME280;38796;42.702;23.306;2022-07-09T04:56:45;95142.22;;;16.80;99.45
52923;BME280;38796;42.702;23.306;2022-07-09T04:58:44;95149.47;;;16.87;98.60
52923;BME280;38796;42.702;23.306;2022-07-09T05:00:49;95153.28;;;16.92;99.18
52923;BME280;38796;42.702;23.306;2022-07-09T05:02:49;95151.75;;;16.98;98.13
52923;BME280;38796;42.702;23.306;2022-07-09T05:04:47;95152.19;;;17.10;98.40
52923;BME280;38796;42.702;23.306;2022-07-09T05:06:45;95157.09;;;17.21;97.33
52923;BME280;38796;42.702;23.306;2022-07-09T05:08:44;95151.63;;;17.14;97.81
52923;BME280;38796;42.702;23.306;2022-07-09T05:10:44;95159.28;;;17.17;97.56
52923;BME280;38796;42.702;23.306;2022-07-09T05:12:42;95165.47;;;17.33;96.55
52923;BME280;38796;42.702;23.306;2022-07-09T05:14:41;95169.16;;;17.32;97.01
52923;BME280;38796;42.702;23.306;2022-07-09T05:16:42;95165.47;;;17.33;96.40
52923;BME280;38796;42.702;23.306;2022-07-09T05:18:43;95167.19;;;17.25;95.88
52923;BME280;38796;42.702;23.306;2022-07-09T05:20:41;95166.84;;;17.28;95.92
52923;BME280;38796;42.702;23.306;2022-07-09T05:22:40;95172.38;;;17.19;95.92
52923;BME280;38796;42.702;23.306;2022-07-09T05:24:38;95167.25;;;17.17;96.00
52923;BME280;38796;42.702;23.306;2022-07-09T05:26:37;95164.75;;;16.93;97.74
52923;BME280;38796;42.702;23.306;2022-07-09T05:28:41;95175.81;;;16.65;97.40
52923;BME280;38796;42.702;23.306;2022-07-09T05:30:41;95174.84;;;16.74;99.37
52923;BME280;38796;42.702;23.306;2022-07-09T05:33:09;95180.03;;;16.91;99.25
52923;BME280;38796;42.702;23.306;2022-07-09T05:35:09;95182.47;;;16.77;99.50
52923;BME280;38796;42.702;23.306;2022-07-09T05:37:10;95186.97;;;16.77;100.00
52923;BME280;38796;42.702;23.306;2022-07-09T05:39:10;95178.31;;;16.75;99.58
52923;BME280;38796;42.702;23.306;2022-07-09T05:41:08;95185.25;;;16.84;99.54
52923;BME280;38796;42.702;23.306;2022-07-09T05:43:07;95181.94;;;16.82;99.04
52923;BME280;38796;42.702;23.306;2022-07-09T05:45:07;95188.63;;;17.01;98.09
52923;BME280;38796;42.702;23.306;2022-07-09T05:47:05;95180.28;;;17.04;97.25
52923;BME280;38796;42.702;23.306;2022-07-09T05:49:04;95184.59;;;17.05;98.29
52923;BME280;38796;42.702;23.306;2022-07-09T05:51:04;95190.31;;;17.25;97.45
52923;BME280;38796;42.702;23.306;2022-07-09T05:53:02;95184.16;;;17.24;96.53
52923;BME280;38796;42.702;23.306;2022-07-09T05:55:00;95191.25;;;17.32;96.09
52923;BME280;38796;42.702;23.306;2022-07-09T05:57:04;95189.00;;;17.44;95.49
52923;BME280;38796;42.702;23.306;2022-07-09T05:59:03;95183.56;;;17.37;95.85
52923;BME280;38796;42.702;23.306;2022-07-09T06:01:01;95190.44;;;17.32;95.83
52923;BME280;38796;42.702;23.306;2022-07-09T06:03:00;95188.50;;;16.94;95.81
52923;BME280;38796;42.702;23.306;2022-07-09T06:04:58;95193.97;;;17.24;95.75
52923;BME280;38796;42.702;23.306;2022-07-09T06:06:58;95187.41;;;17.12;96.87
52923;BME280;38796;42.702;23.306;2022-07-09T06:08:57;95179.94;;;17.07;96.75
52923;BME280;38796;42.702;23.306;2022-07-09T06:10:55;95182.25;;;17.10;95.75
52923;BME280;38796;42.702;23.306;2022-07-09T06:12:53;95195.63;;;17.25;95.64
52923;BME280;38796;42.702;23.306;2022-07-09T06:14:51;95186.50;;;17.19;96.00
52923;BME280;38796;42.702;23.306;2022-07-09T06:16:50;95185.81;;;17.02;97.46
52923;BME280;38796;42.702;23.306;2022-07-09T06:18:48;95187.72;;;17.17;95.93
52923;BME280;38796;42.702;23.306;2022-07-09T06:20:46;95193.25;;;17.07;96.31
52923;BME280;38796;42.702;23.306;2022-07-09T06:22:46;95200.22;;;17.08;97.16
52923;BME280;38796;42.702;23.306;2022-07-09T06:24:45;95189.16;;;17.19;96.27
52923;BME280;38796;42.702;23.306;2022-07-09T06:26:43;95193.50;;;17.20;96.54
52923;BME280;38796;42.702;23.306;2022-07-09T06:28:43;95199.59;;;17.06;97.05
52923;BME280;38796;42.702;23.306;2022-07-09T06:30:43;95201.53;;;17.12;97.11
52923;BME280;38796;42.702;23.306;2022-07-09T06:32:41;95199.22;;;17.09;97.38
52923;BME280;38796;42.702;23.306;2022-07-09T06:34:40;95194.06;;;17.08;98.09
52923;BME280;38796;42.702;23.306;2022-07-09T06:36:38;95197.41;;;17.10;97.64
52923;BME280;38796;42.702;23.306;2022-07-09T06:38:38;95195.31;;;17.20;97.97
52923;BME280;38796;42.702;23.306;2022-07-09T06:40:53;95200.06;;;17.33;97.54
52923;BME280;38796;42.702;23.306;2022-07-09T06:42:52;95205.38;;;17.33;97.32
52923;BME280;38796;42.702;23.306;2022-07-09T06:44:53;95201.00;;;17.17;96.77
52923;BME280;38796;42.702;23.306;2022-07-09T06:46:52;95208.63;;;17.20;96.59
52923;BME280;38796;42.702;23.306;2022-07-09T06:48:50;95202.31;;;17.21;97.01
52923;BME280;38796;42.702;23.306;2022-07-09T06:50:48;95202.94;;;17.23;96.35
52923;BME280;38796;42.702;23.306;2022-07-09T06:52:46;95202.53;;;17.34;95.01
52923;BME280;38796;42.702;23.306;2022-07-09T06:54:46;95209.88;;;17.32;95.31
52923;BME280;38796;42.702;23.306;2022-07-09T06:56:44;95205.72;;;17.29;95.43
52923;BME280;38796;42.702;23.306;2022-07-09T06:58:43;95209.81;;;17.17;96.28
52923;BME280;38796;42.702;23.306;2022-07-09T07:00:41;95205.13;;;17.19;97.34
52923;BME280;38796;42.702;23.306;2022-07-09T07:02:42;95200.47;;;17.21;96.04
52923;BME280;38796;42.702;23.306;2022-07-09T07:04:41;95199.41;;;17.30;97.07
52923;BME280;38796;42.702;23.306;2022-07-09T07:06:39;95200.34;;;17.38;96.91
52923;BME280;38796;42.702;23.306;2022-07-09T07:08:37;95206.81;;;17.20;97.52
52923;BME280;38796;42.702;23.306;2022-07-09T07:10:37;95212.06;;;17.28;96.21
52923;BME280;38796;42.702;23.306;2022-07-09T07:12:39;95206.88;;;17.35;96.63
52923;BME280;38796;42.702;23.306;2022-07-09T07:14:37;95203.72;;;17.32;97.84
52923;BME280;38796;42.702;23.306;2022-07-09T07:16:35;95208.53;;;17.13;96.35
52923;BME280;38796;42.702;23.306;2022-07-09T07:18:34;95214.50;;;17.38;96.73
52923;BME280;38796;42.702;23.306;2022-07-09T07:20:33;95213.69;;;17.52;96.39
52923;BME280;38796;42.702;23.306;2022-07-09T07:22:31;95204.84;;;17.60;96.45
52923;BME280;38796;42.702;23.306;2022-07-09T07:24:32;95202.38;;;17.73;96.52
52923;BME280;38796;42.702;23.306;2022-07-09T07:26:31;95206.25;;;18.09;93.79
52923;BME280;38796;42.702;23.306;2022-07-09T07:28:30;95207.66;;;18.34;92.52
52923;BME280;38796;42.702;23.306;2022-07-09T07:30:29;95211.59;;;18.53;91.10
52923;BME280;38796;42.702;23.306;2022-07-09T07:32:29;95209.09;;;18.66;88.98
52923;BME280;38796;42.702;23.306;2022-07-09T07:34:28;95205.38;;;18.76;89.42
52923;BME280;38796;42.702;23.306;2022-07-09T07:36:26;95203.53;;;18.76;88.49
52923;BME280;38796;42.702;23.306;2022-07-09T07:38:24;95203.06;;;18.58;89.43
52923;BME280;38796;42.702;23.306;2022-07-09T07:40:24;95203.22;;;18.41;89.45
52923;BME280;38796;42.702;23.306;2022-07-09T07:42:24;95201.41;;;18.71;90.00
52923;BME280;38796;42.702;23.306;2022-07-09T07:44:23;95209.75;;;18.83;90.49
52923;BME280;38796;42.702;23.306;2022-07-09T07:46:21;95203.94;;;19.31;86.26
52923;BME280;38796;42.702;23.306;2022-07-09T07:48:19;95203.56;;;19.55;86.00
52923;BME280;38796;42.702;23.306;2022-07-09T07:50:18;95205.50;;;19.25;85.21
52923;BME280;38796;42.702;23.306;2022-07-09T07:52:16;95203.69;;;19.11;86.28
52923;BME280;38796;42.702;23.306;2022-07-09T07:54:15;95207.63;;;18.93;85.48
52923;BME280;38796;42.702;23.306;2022-07-09T07:56:14;95210.47;;;18.92;85.53
52923;BME280;38796;42.702;23.306;2022-07-09T07:58:14;95215.03;;;19.13;83.92
52923;BME280;38796;42.702;23.306;2022-07-09T08:00:12;95215.34;;;19.25;83.75
52923;BME280;38796;42.702;23.306;2022-07-09T08:02:12;95212.66;;;19.03;84.54
52923;BME280;38796;42.702;23.306;2022-07-09T08:04:11;95210.63;;;19.05;83.10
52923;BME280;38796;42.702;23.306;2022-07-09T08:06:10;95207.34;;;18.88;82.47
52923;BME280;38796;42.702;23.306;2022-07-09T08:08:08;95197.94;;;19.29;82.62
52923;BME280;38796;42.702;23.306;2022-07-09T08:10:07;95197.53;;;19.68;80.99
52923;BME280;38796;42.702;23.306;2022-07-09T08:12:07;95189.66;;;20.09;79.16
52923;BME280;38796;42.702;23.306;2022-07-09T08:14:07;95194.34;;;20.77;77.06
52923;BME280;38796;42.702;23.306;2022-07-09T08:16:06;95193.22;;;20.99;74.16
52923;BME280;38796;42.702;23.306;2022-07-09T08:18:05;95196.09;;;20.98;73.29
52923;BME280;38796;42.702;23.306;2022-07-09T08:20:06;95200.22;;;21.00;74.47
52923;BME280;38796;42.702;23.306;2022-07-09T08:22:05;95195.00;;;20.79;74.18
52923;BME280;38796;42.702;23.306;2022-07-09T08:24:04;95202.63;;;20.82;74.85
52923;BME280;38796;42.702;23.306;2022-07-09T08:26:03;95196.53;;;20.53;77.12
52923;BME280;38796;42.702;23.306;2022-07-09T08:28:02;95198.53;;;20.16;77.90
52923;BME280;38796;42.702;23.306;2022-07-09T08:30:02;95195.31;;;20.56;75.52
52923;BME280;38796;42.702;23.306;2022-07-09T08:32:04;95193.84;;;20.53;75.77
52923;BME280;38796;42.702;23.306;2022-07-09T08:34:03;95190.91;;;20.13;76.09
52923;BME280;38796;42.702;23.306;2022-07-09T08:36:01;95199.66;;;20.63;76.07
52923;BME280;38796;42.702;23.306;2022-07-09T08:37:59;95192.78;;;20.89;74.26
52923;BME280;38796;42.702;23.306;2022-07-09T08:39:59;95209.34;;;20.64;75.11
52923;BME280;38796;42.702;23.306;2022-07-09T08:41:58;95199.25;;;20.32;76.88
52923;BME280;38796;42.702;23.306;2022-07-09T08:43:57;95207.59;;;20.22;77.45
52923;BME280;38796;42.702;23.306;2022-07-09T08:45:57;95205.59;;;19.75;77.99
52923;BME280;38796;42.702;23.306;2022-07-09T08:47:56;95214.13;;;19.63;79.30
52923;BME280;38796;42.702;23.306;2022-07-09T08:49:56;95202.16;;;19.59;77.84
52923;BME280;38796;42.702;23.306;2022-07-09T08:51:55;95211.19;;;19.58;79.24
52923;BME280;38796;42.702;23.306;2022-07-09T08:53:55;95208.66;;;19.14;80.21
52923;BME280;38796;42.702;23.306;2022-07-09T08:55:54;95205.59;;;18.95;82.72
52923;BME280;38796;42.702;23.306;2022-07-09T08:57:53;95216.22;;;19.10;82.83
52923;BME280;38796;42.702;23.306;2022-07-09T08:59:51;95216.47;;;18.94;82.84
52923;BME280;38796;42.702;23.306;2022-07-09T09:01:51;95210.69;;;18.76;83.85
52923;BME280;38796;42.702;23.306;2022-07-09T09:03:49;95217.44;;;18.93;82.46
52923;BME280;38796;42.702;23.306;2022-07-09T09:06:00;95225.22;;;18.58;84.76
52923;BME280;38796;42.702;23.306;2022-07-09T09:07:59;95213.41;;;18.67;85.23
52923;BME280;38796;42.702;23.306;2022-07-09T09:09:58;95212.91;;;18.57;85.41
52923;BME280;38796;42.702;23.306;2022-07-09T09:11:56;95216.00;;;18.31;85.39
52923;BME280;38796;42.702;23.306;2022-07-09T09:13:55;95218.97;;;18.36;86.37
52923;BME280;38796;42.702;23.306;2022-07-09T09:16:04;95212.50;;;18.31;88.42
52923;BME280;38796;42.702;23.306;2022-07-09T09:18:05;95214.63;;;18.20;87.66
52923;BME280;38796;42.702;23.306;2022-07-09T09:20:11;95210.19;;;18.13;88.46
52923;BME280;38796;42.702;23.306;2022-07-09T09:22:09;95218.13;;;18.51;87.38
52923;BME280;38796;42.702;23.306;2022-07-09T09:24:11;95219.53;;;18.76;86.10
52923;BME280;38796;42.702;23.306;2022-07-09T09:26:10;95215.06;;;18.98;85.59
52923;BME280;38796;42.702;23.306;2022-07-09T09:28:09;95214.47;;;19.17;84.69
52923;BME280;38796;42.702;23.306;2022-07-09T09:30:10;95213.91;;;19.43;83.21
52923;BME280;38796;42.702;23.306;2022-07-09T09:32:09;95213.78;;;19.52;82.79
52923;BME280;38796;42.702;23.306;2022-07-09T09:34:14;95212.97;;;19.30;83.15
52923;BME280;38796;42.702;23.306;2022-07-09T09:36:28;95210.75;;;19.18;83.03
52923;BME280;38796;42.702;23.306;2022-07-09T09:38:31;95216.94;;;19.19;82.95
52923;BME280;38796;42.702;23.306;2022-07-09T09:40:30;95220.81;;;19.16;81.58
52923;BME280;38796;42.702;23.306;2022-07-09T09:42:28;95220.63;;;19.18;83.09
52923;BME280;38796;42.702;23.306;2022-07-09T09:44:28;95220.28;;;19.06;80.56
52923;BME280;38796;42.702;23.306;2022-07-09T09:46:28;95229.91;;;18.71;81.15
52923;BME280;38796;42.702;23.306;2022-07-09T09:48:26;95223.56;;;18.57;81.78
52923;BME280;38796;42.702;23.306;2022-07-09T09:50:28;95221.34;;;18.46;84.06
52923;BME280;38796;42.702;23.306;2022-07-09T09:52:26;95221.16;;;18.33;83.02
52923;BME280;38796;42.702;23.306;2022-07-09T09:54:24;95214.81;;;18.19;84.99
52923;BME280;38796;42.702;23.306;2022-07-09T09:56:24;95219.88;;;18.58;84.29
52923;BME280;38796;42.702;23.306;2022-07-09T09:58:23;95219.97;;;18.50;84.68
52923;BME280;38796;42.702;23.306;2022-07-09T10:00:21;95227.78;;;18.52;85.00
52923;BME280;38796;42.702;23.306;2022-07-09T10:02:20;95216.66;;;18.48;86.28
52923;BME280;38796;42.702;23.306;2022-07-09T10:04:19;95218.22;;;18.42;87.97
52923;BME280;38796;42.702;23.306;2022-07-09T10:06:20;95218.59;;;18.54;86.73
52923;BME280;38796;42.702;23.306;2022-07-09T10:08:18;95221.16;;;18.33;85.37
52923;BME280;38796;42.702;23.306;2022-07-09T10:10:17;95219.22;;;18.41;85.06
52923;BME280;38796;42.702;23.306;2022-07-09T10:12:25;95217.28;;;18.35;86.69
52923;BME280;38796;42.702;23.306;2022-07-09T10:14:31;95210.56;;;18.10;88.39
52923;BME280;38796;42.702;23.306;2022-07-09T10:16:34;95229.69;;;18.13;87.16
52923;BME280;38796;42.702;23.306;2022-07-09T10:18:33;95219.47;;;18.02;88.02
52923;BME280;38796;42.702;23.306;2022-07-09T10:20:33;95224.13;;;17.85;87.86